createdAt,value
2022-10-16T00:00:21.632Z,93.25
2022-10-16T00:01:21.013Z,93.86
2022-10-16T00:02:22.218Z,93.15
2022-10-16T00:03:25.288Z,93.35
2022-10-16T00:04:22.400Z,93.45
2022-10-16T00:05:22.134Z,93.45
2022-10-16T00:06:21.651Z,93.25
2022-10-16T00:07:21.806Z,92.84
2022-10-16T00:08:21.949Z,93.05
2022-10-16T00:09:22.120Z,93.05
2022-10-16T00:10:22.274Z,92.94
2022-10-16T00:11:22.414Z,92.84
2022-10-16T00:12:22.988Z,93.35
2022-10-16T00:13:22.719Z,92.54
2022-10-16T00:14:22.877Z,92.64
2022-10-16T00:15:23.040Z,92.29
2022-10-16T00:16:23.211Z,92.44
2022-10-16T00:17:23.353Z,92.24
2022-10-16T00:18:23.489Z,92.33
2022-10-16T00:19:23.652Z,92.33
2022-10-16T00:20:23.837Z,92.54
2022-10-16T00:21:24.640Z,92.33
2022-10-16T00:22:24.396Z,91.52
2022-10-16T00:23:24.232Z,91.52
2022-10-16T00:24:24.354Z,91.63
2022-10-16T00:25:24.659Z,92.03
2022-10-16T00:26:24.786Z,91.63
2022-10-16T00:27:24.918Z,91.63
2022-10-16T00:28:25.155Z,91.83
2022-10-16T00:29:26.156Z,91.73
2022-10-16T00:30:25.421Z,91.93
2022-10-16T00:31:26.143Z,91.63
2022-10-16T00:32:26.257Z,91.42
2022-10-16T00:33:26.048Z,92.24
2022-10-16T00:34:26.212Z,92.44
2022-10-16T00:35:27.149Z,92.24
2022-10-16T00:36:27.155Z,92.44
2022-10-16T00:37:26.803Z,92.33
2022-10-16T00:38:27.023Z,91.83
2022-10-16T00:39:28.145Z,91.63
2022-10-16T00:40:27.421Z,91.83
2022-10-16T00:41:28.148Z,91.63
2022-10-16T00:42:28.280Z,91.52
2022-10-16T00:43:28.166Z,91.83
2022-10-16T00:44:28.182Z,91.63
2022-10-16T00:45:29.149Z,91.52
2022-10-16T00:46:29.148Z,91.83
2022-10-16T00:47:29.646Z,91.93
2022-10-16T00:48:28.919Z,91.67
2022-10-16T00:49:29.099Z,91.77
2022-10-16T00:50:29.235Z,92.18
2022-10-16T00:51:30.149Z,92.38
2022-10-16T00:52:29.508Z,92.44
2022-10-16T00:53:29.667Z,92.38
2022-10-16T00:54:30.645Z,92.44
2022-10-16T00:55:29.993Z,92.44
2022-10-16T00:56:30.147Z,92.24
2022-10-16T00:57:30.292Z,92.89
2022-10-16T00:58:30.459Z,92.74
2022-10-16T00:59:30.663Z,92.58
2022-10-16T01:00:30.822Z,92.58
2022-10-16T01:01:32.020Z,92.48
2022-10-16T01:02:31.189Z,92.74
2022-10-16T01:03:32.150Z,92.79
2022-10-16T01:04:32.160Z,92.99
2022-10-16T01:05:31.658Z,93.40
2022-10-16T01:06:31.788Z,92.99
2022-10-16T01:07:31.926Z,93.09
2022-10-16T01:08:32.084Z,92.84
2022-10-16T01:09:33.156Z,93.05
2022-10-16T01:10:32.392Z,93.19
2022-10-16T01:11:33.157Z,92.89
2022-10-16T01:12:32.773Z,93.09
2022-10-16T01:13:32.885Z,92.89
2022-10-16T01:14:33.130Z,92.89
2022-10-16T01:15:33.323Z,92.89
2022-10-16T01:16:33.477Z,92.99
2022-10-16T01:17:33.609Z,92.84
2022-10-16T01:18:33.718Z,92.89
2022-10-16T01:19:33.874Z,92.79
2022-10-16T01:20:34.002Z,92.74
2022-10-16T01:21:34.654Z,93.09
2022-10-16T01:22:34.280Z,92.99
2022-10-16T01:23:34.412Z,92.79
2022-10-16T01:24:34.616Z,92.94
2022-10-16T01:25:34.766Z,92.89
2022-10-16T01:26:35.669Z,92.99
2022-10-16T01:27:35.046Z,93.19
2022-10-16T01:28:35.225Z,93.15
2022-10-16T01:29:35.391Z,93.29
2022-10-16T01:30:35.524Z,93.49
2022-10-16T01:31:35.662Z,93.35
2022-10-16T01:32:35.812Z,93.49
2022-10-16T01:33:35.960Z,93.40
2022-10-16T01:34:36.085Z,93.70
2022-10-16T01:35:36.218Z,93.90
2022-10-16T01:36:36.338Z,93.80
2022-10-16T01:37:36.678Z,93.70
2022-10-16T01:38:36.685Z,93.80
2022-10-16T01:39:36.923Z,93.80
2022-10-16T01:40:37.665Z,93.90
2022-10-16T01:41:38.167Z,93.86
2022-10-16T01:42:37.428Z,93.80
2022-10-16T01:43:37.588Z,94.51
2022-10-16T01:44:37.712Z,94.31
2022-10-16T01:45:37.837Z,94.00
2022-10-16T01:46:37.970Z,94.41
2022-10-16T01:47:38.153Z,94.51
2022-10-16T01:48:38.314Z,94.00
2022-10-16T01:49:38.466Z,93.90
2022-10-16T01:50:38.613Z,94.10
2022-10-16T01:51:38.754Z,93.80
2022-10-16T01:52:38.920Z,94.51
2022-10-16T01:53:39.096Z,93.90
2022-10-16T01:54:39.271Z,94.61
2022-10-16T01:55:39.462Z,94.10
2022-10-16T01:56:39.647Z,94.10
2022-10-16T01:57:39.794Z,94.00
2022-10-16T01:58:39.944Z,94.00
2022-10-16T01:59:40.102Z,94.00
2022-10-16T02:00:40.251Z,94.00
2022-10-16T02:01:40.371Z,93.70
2022-10-16T02:02:40.539Z,93.19
2022-10-16T02:03:40.686Z,93.19
2022-10-16T02:04:40.828Z,93.49
2022-10-16T02:05:40.997Z,93.29
2022-10-16T02:06:41.711Z,93.24
2022-10-16T02:07:41.363Z,93.29
2022-10-16T02:08:41.692Z,93.09
2022-10-16T02:09:41.706Z,93.29
2022-10-16T02:10:41.875Z,93.44
2022-10-16T02:11:42.674Z,92.79
2022-10-16T02:12:42.190Z,92.89
2022-10-16T02:13:42.339Z,93.09
2022-10-16T02:14:42.503Z,92.83
2022-10-16T02:15:42.649Z,93.33
2022-10-16T02:16:42.792Z,92.79
2022-10-16T02:17:42.973Z,93.13
2022-10-16T02:18:43.192Z,92.89
2022-10-16T02:19:44.186Z,93.03
2022-10-16T02:20:43.590Z,92.99
2022-10-16T02:21:44.675Z,93.33
2022-10-16T02:22:43.923Z,93.19
2022-10-16T02:23:44.177Z,93.03
2022-10-16T02:24:45.175Z,93.40
2022-10-16T02:25:44.705Z,92.89
2022-10-16T02:26:44.728Z,92.89
2022-10-16T02:27:44.870Z,93.44
2022-10-16T02:28:45.811Z,93.13
2022-10-16T02:29:45.245Z,92.93
2022-10-16T02:30:45.277Z,93.24
2022-10-16T02:31:45.425Z,93.44
2022-10-16T02:32:45.593Z,93.44
2022-10-16T02:33:46.189Z,93.33
2022-10-16T02:34:46.683Z,93.74
2022-10-16T02:35:46.683Z,93.33
2022-10-16T02:36:46.327Z,93.95
2022-10-16T02:37:46.692Z,94.05
2022-10-16T02:38:47.680Z,94.05
2022-10-16T02:39:46.950Z,94.35
2022-10-16T02:40:47.152Z,94.45
2022-10-16T02:41:47.326Z,94.15
2022-10-16T02:42:47.498Z,93.95
2022-10-16T02:43:47.683Z,94.45
2022-10-16T02:44:47.838Z,93.95
2022-10-16T02:45:48.205Z,93.95
2022-10-16T02:46:48.679Z,94.05
2022-10-16T02:47:48.236Z,94.25
2022-10-16T02:48:48.401Z,94.45
2022-10-16T02:49:49.182Z,94.45
2022-10-16T02:50:48.706Z,94.40
2022-10-16T02:51:49.686Z,94.86
2022-10-16T02:52:49.082Z,94.66
2022-10-16T02:53:49.216Z,94.45
2022-10-16T02:54:49.389Z,94.86
2022-10-16T02:55:49.548Z,94.76
2022-10-16T02:56:49.670Z,94.86
2022-10-16T02:57:49.814Z,94.45
2022-10-16T02:58:50.685Z,94.45
2022-10-16T02:59:50.709Z,94.45
2022-10-16T03:00:50.360Z,94.66
2022-10-16T03:01:51.206Z,94.60
2022-10-16T03:02:50.708Z,95.26
2022-10-16T03:03:51.691Z,94.96
2022-10-16T03:04:51.078Z,95.10
2022-10-16T03:05:52.187Z,94.80
2022-10-16T03:06:52.191Z,94.86
2022-10-16T03:07:51.679Z,94.96
2022-10-16T03:08:51.832Z,94.66
2022-10-16T03:09:52.183Z,94.66
2022-10-16T03:10:53.216Z,94.56
2022-10-16T03:11:52.467Z,94.80
2022-10-16T03:12:52.602Z,94.35
2022-10-16T03:13:53.759Z,94.25
2022-10-16T03:14:52.901Z,94.35
2022-10-16T03:15:53.054Z,94.05
2022-10-16T03:16:53.199Z,94.05
2022-10-16T03:17:53.347Z,93.95
2022-10-16T03:18:53.502Z,94.50
2022-10-16T03:19:54.180Z,94.25
2022-10-16T03:20:55.692Z,94.05
2022-10-16T03:21:54.698Z,94.25
2022-10-16T03:22:54.171Z,93.95
2022-10-16T03:23:54.340Z,94.25
2022-10-16T03:24:54.487Z,94.35
2022-10-16T03:25:54.671Z,94.05
2022-10-16T03:26:54.838Z,94.20
2022-10-16T03:27:55.693Z,94.25
2022-10-16T03:28:55.231Z,94.40
2022-10-16T03:29:55.405Z,94.05
2022-10-16T03:30:55.584Z,94.45
2022-10-16T03:31:56.691Z,94.56
2022-10-16T03:32:56.696Z,94.25
2022-10-16T03:33:56.697Z,94.25
2022-10-16T03:34:56.196Z,93.84
2022-10-16T03:35:56.372Z,94.15
2022-10-16T03:36:57.206Z,94.20
2022-10-16T03:37:56.701Z,93.84
2022-10-16T03:38:56.860Z,93.64
2022-10-16T03:39:57.015Z,93.64
2022-10-16T03:40:57.205Z,93.44
2022-10-16T03:41:58.193Z,93.33
2022-10-16T03:42:57.581Z,93.74
2022-10-16T03:43:57.729Z,93.24
2022-10-16T03:44:58.701Z,93.95
2022-10-16T03:45:58.069Z,93.64
2022-10-16T03:46:59.195Z,93.64
2022-10-16T03:47:58.731Z,93.68
2022-10-16T03:48:58.674Z,93.74
2022-10-16T03:49:59.736Z,93.38
2022-10-16T03:50:58.975Z,93.54
2022-10-16T03:51:59.128Z,93.33
2022-10-16T03:53:00.199Z,93.74
2022-10-16T03:53:59.713Z,93.64
2022-10-16T03:54:59.714Z,93.44
2022-10-16T03:56:00.708Z,93.28
2022-10-16T03:57:00.700Z,93.79
2022-10-16T03:58:00.701Z,93.74
2022-10-16T03:59:00.185Z,93.79
2022-10-16T04:00:00.717Z,93.48
2022-10-16T04:01:00.500Z,93.64
2022-10-16T04:02:01.705Z,93.48
2022-10-16T04:03:01.705Z,93.07
2022-10-16T04:04:01.080Z,93.07
2022-10-16T04:05:01.229Z,93.07
2022-10-16T04:06:01.390Z,92.52
2022-10-16T04:07:02.203Z,92.72
2022-10-16T04:08:02.203Z,92.36
2022-10-16T04:09:02.710Z,92.87
2022-10-16T04:10:02.099Z,92.72
2022-10-16T04:11:02.719Z,92.52
2022-10-16T04:12:02.461Z,92.12
2022-10-16T04:13:03.205Z,92.52
2022-10-16T04:14:02.813Z,92.42
2022-10-16T04:15:02.942Z,92.52
2022-10-16T04:16:03.087Z,92.57
2022-10-16T04:17:03.711Z,92.52
2022-10-16T04:18:03.443Z,92.36
2022-10-16T04:19:04.037Z,92.42
2022-10-16T04:20:04.709Z,92.57
2022-10-16T04:21:04.701Z,92.57
2022-10-16T04:22:05.185Z,92.52
2022-10-16T04:23:04.323Z,92.42
2022-10-16T04:24:04.724Z,92.12
2022-10-16T04:25:04.637Z,91.71
2022-10-16T04:26:05.733Z,91.71
2022-10-16T04:27:04.964Z,91.82
2022-10-16T04:28:05.213Z,91.71
2022-10-16T04:29:05.448Z,91.82
2022-10-16T04:30:05.489Z,91.71
2022-10-16T04:31:06.211Z,91.91
2022-10-16T04:32:06.221Z,91.91
2022-10-16T04:33:06.710Z,91.91
2022-10-16T04:34:06.713Z,92.02
2022-10-16T04:35:06.321Z,91.96
2022-10-16T04:36:07.210Z,92.02
2022-10-16T04:37:06.585Z,91.82
2022-10-16T04:38:06.709Z,92.02
2022-10-16T04:39:06.935Z,91.41
2022-10-16T04:40:08.714Z,91.41
2022-10-16T04:41:07.405Z,91.61
2022-10-16T04:42:07.660Z,92.12
2022-10-16T04:43:07.790Z,92.12
2022-10-16T04:44:08.716Z,91.75
2022-10-16T04:45:10.904Z,91.20
2022-10-16T04:46:09.374Z,91.71
2022-10-16T04:47:08.614Z,91.82
2022-10-16T04:48:09.220Z,91.71
2022-10-16T04:49:08.844Z,91.91
2022-10-16T04:50:09.016Z,91.91
2022-10-16T04:51:09.158Z,92.22
2022-10-16T04:52:10.217Z,92.12
2022-10-16T04:53:10.225Z,92.22
2022-10-16T04:54:10.216Z,91.91
2022-10-16T04:55:09.758Z,92.22
2022-10-16T04:56:09.895Z,91.86
2022-10-16T04:57:10.734Z,92.02
2022-10-16T04:58:11.218Z,91.91
2022-10-16T04:59:10.455Z,91.91
2022-10-16T05:00:10.749Z,91.71
2022-10-16T05:01:10.774Z,91.51
2022-10-16T05:02:11.731Z,91.91
2022-10-16T05:03:11.256Z,91.91
2022-10-16T05:04:11.336Z,91.91
2022-10-16T05:05:11.442Z,91.82
2022-10-16T05:06:11.742Z,91.51
2022-10-16T05:07:12.718Z,91.71
2022-10-16T05:08:12.078Z,91.71
2022-10-16T05:09:12.230Z,91.71
2022-10-16T05:10:12.384Z,91.71
2022-10-16T05:11:12.511Z,91.61
2022-10-16T05:12:12.636Z,92.26
2022-10-16T05:13:12.755Z,92.02
2022-10-16T05:14:12.995Z,92.02
2022-10-16T05:15:13.142Z,92.42
2022-10-16T05:16:14.281Z,92.42
2022-10-16T05:17:14.398Z,91.91
2022-10-16T05:18:13.529Z,92.47
2022-10-16T05:19:29.316Z,92.36
2022-10-16T05:20:15.895Z,92.87
2022-10-16T05:21:14.126Z,92.67
2022-10-16T05:22:14.264Z,92.57
2022-10-16T05:23:14.438Z,92.52
2022-10-16T05:24:14.618Z,92.52
2022-10-16T05:25:14.759Z,92.63
2022-10-16T05:26:14.901Z,92.72
2022-10-16T05:27:15.057Z,92.67
2022-10-16T05:28:16.240Z,92.52
2022-10-16T05:29:15.381Z,92.47
2022-10-16T05:30:16.230Z,92.83
2022-10-16T05:31:15.744Z,92.77
2022-10-16T05:32:16.726Z,93.07
2022-10-16T05:33:16.107Z,92.57
2022-10-16T05:34:16.252Z,92.87
2022-10-16T05:35:16.392Z,92.77
2022-10-16T05:36:16.739Z,93.28
2022-10-16T05:37:17.755Z,93.28
2022-10-16T05:38:16.888Z,93.18
2022-10-16T05:39:17.106Z,93.38
2022-10-16T05:40:17.253Z,93.07
2022-10-16T05:41:17.482Z,93.38
2022-10-16T05:42:17.679Z,93.07
2022-10-16T05:43:17.802Z,93.59
2022-10-16T05:44:17.977Z,93.68
2022-10-16T05:45:18.106Z,93.68
2022-10-16T05:46:18.254Z,93.28
2022-10-16T05:47:18.404Z,93.99
2022-10-16T05:48:18.553Z,94.04
2022-10-16T05:49:18.728Z,93.99
2022-10-16T05:50:18.873Z,94.40
2022-10-16T05:51:19.731Z,94.09
2022-10-16T05:52:19.219Z,94.50
2022-10-16T05:53:19.353Z,94.50
2022-10-16T05:54:20.522Z,94.50
2022-10-16T05:55:19.636Z,94.09
2022-10-16T05:56:19.777Z,94.20
2022-10-16T05:57:20.732Z,94.09
2022-10-16T05:58:20.143Z,94.20
2022-10-16T05:59:20.298Z,94.29
2022-10-16T06:00:21.259Z,94.74
2022-10-16T06:01:20.653Z,94.50
2022-10-16T06:02:20.837Z,94.09
2022-10-16T06:03:20.972Z,94.64
2022-10-16T06:04:21.108Z,94.80
2022-10-16T06:05:21.248Z,94.60
2022-10-16T06:06:21.375Z,94.40
2022-10-16T06:07:21.497Z,94.40
2022-10-16T06:08:21.650Z,94.29
2022-10-16T06:09:21.804Z,94.29
2022-10-16T06:10:22.254Z,94.05
2022-10-16T06:11:22.143Z,94.05
2022-10-16T06:12:22.270Z,94.35
2022-10-16T06:13:23.240Z,94.25
2022-10-16T06:14:22.628Z,94.76
2022-10-16T06:15:22.775Z,94.15
2022-10-16T06:16:22.915Z,93.99
2022-10-16T06:17:23.203Z,94.15
2022-10-16T06:18:23.200Z,94.05
2022-10-16T06:19:56.719Z,94.15
2022-10-16T06:20:23.472Z,94.35
2022-10-16T06:21:23.708Z,93.74
2022-10-16T06:22:24.291Z,93.84
2022-10-16T06:23:24.780Z,93.74
2022-10-16T06:24:24.781Z,93.74
2022-10-16T06:25:24.525Z,93.33
2022-10-16T06:26:24.800Z,93.49
2022-10-16T06:27:26.121Z,93.24
2022-10-16T06:28:25.096Z,93.74
2022-10-16T06:29:25.782Z,93.19
2022-10-16T06:30:25.383Z,93.09
2022-10-16T06:31:25.540Z,92.99
2022-10-16T06:32:25.676Z,93.40
2022-10-16T06:33:25.812Z,92.79
2022-10-16T06:34:26.790Z,93.19
2022-10-16T06:35:26.163Z,92.79
2022-10-16T06:36:26.320Z,92.79
2022-10-16T06:37:26.825Z,93.09
2022-10-16T06:38:26.661Z,92.58
2022-10-16T06:39:26.810Z,93.19
2022-10-16T06:40:27.787Z,92.64
2022-10-16T06:41:27.177Z,92.33
2022-10-16T06:42:27.757Z,92.33
2022-10-16T06:43:28.297Z,92.84
2022-10-16T06:44:27.649Z,92.33
2022-10-16T06:45:27.815Z,92.64
2022-10-16T06:46:27.940Z,92.33
2022-10-16T06:47:28.087Z,92.29
2022-10-16T06:48:28.795Z,91.99
2022-10-16T06:49:28.396Z,91.78
2022-10-16T06:50:28.650Z,91.68
2022-10-16T06:51:28.781Z,91.54
2022-10-16T06:52:29.498Z,91.19
2022-10-16T06:53:29.056Z,89.04
2022-10-16T06:54:36.450Z,86.59
2022-10-16T06:55:30.502Z,84.85
2022-10-16T06:56:29.799Z,81.98
2022-10-16T06:57:30.305Z,78.34
2022-10-16T06:58:29.915Z,75.55
2022-10-16T06:59:30.081Z,75.25
2022-10-16T07:00:30.205Z,74.95
2022-10-16T07:01:31.287Z,74.55
2022-10-16T07:02:30.544Z,73.84
2022-10-16T07:03:30.656Z,73.41
2022-10-16T07:04:30.786Z,72.63
2022-10-16T07:05:31.825Z,71.00
2022-10-16T07:06:31.073Z,70.76
2022-10-16T07:07:31.202Z,69.89
2022-10-16T07:08:31.328Z,68.39
2022-10-16T07:09:31.466Z,66.46
2022-10-16T07:10:31.623Z,66.76
2022-10-16T07:11:31.751Z,67.09
2022-10-16T07:12:31.873Z,66.36
2022-10-16T07:13:32.799Z,66.93
2022-10-16T07:14:32.152Z,68.82
2022-10-16T07:15:32.309Z,70.16
2022-10-16T07:16:32.425Z,71.26
2022-10-16T07:17:33.298Z,70.53
2022-10-16T07:18:32.785Z,70.56
2022-10-16T07:19:34.433Z,69.42
2022-10-16T07:20:34.117Z,69.93
2022-10-16T07:21:33.815Z,68.86
2022-10-16T07:22:33.430Z,67.40
2022-10-16T07:23:33.567Z,67.96
2022-10-16T07:24:33.721Z,68.86
2022-10-16T07:25:33.847Z,68.99
2022-10-16T07:26:33.977Z,70.26
2022-10-16T07:27:34.211Z,71.97
2022-10-16T07:28:34.823Z,73.91
2022-10-16T07:29:34.488Z,76.84
2022-10-16T07:30:34.627Z,78.83
2022-10-16T07:31:34.765Z,79.60
2022-10-16T07:32:34.929Z,78.58
2022-10-16T07:33:35.077Z,77.36
2022-10-16T07:34:35.194Z,74.71
2022-10-16T07:35:35.330Z,71.30
2022-10-16T07:36:35.511Z,70.43
2022-10-16T07:37:35.675Z,68.79
2022-10-16T07:38:35.870Z,68.13
2022-10-16T07:39:36.024Z,68.19
2022-10-16T07:40:36.808Z,68.32
2022-10-16T07:41:36.416Z,68.39
2022-10-16T07:42:36.552Z,69.89
2022-10-16T07:43:36.736Z,70.26
2022-10-16T07:44:36.856Z,71.00
2022-10-16T07:45:38.010Z,70.76
2022-10-16T07:46:37.133Z,71.39
2022-10-16T07:47:37.302Z,71.30
2022-10-16T07:49:10.874Z,71.03
2022-10-16T07:49:38.448Z,69.43
2022-10-16T07:50:38.344Z,68.66
2022-10-16T07:51:38.842Z,67.76
2022-10-16T07:52:38.855Z,66.80
2022-10-16T07:53:38.842Z,65.34
2022-10-16T07:54:38.857Z,65.47
2022-10-16T07:55:38.483Z,64.77
2022-10-16T07:56:41.349Z,65.17
2022-10-16T07:57:40.343Z,65.01
2022-10-16T07:58:39.846Z,64.67
2022-10-16T07:59:39.105Z,65.26
2022-10-16T08:00:39.266Z,64.74
2022-10-16T08:01:39.541Z,64.87
2022-10-16T08:02:40.342Z,65.40
2022-10-16T08:03:40.843Z,66.23
2022-10-16T08:04:40.112Z,66.09
2022-10-16T08:05:40.280Z,65.80
2022-10-16T08:06:40.423Z,66.83
2022-10-16T08:07:40.556Z,67.99
2022-10-16T08:08:40.694Z,68.69
2022-10-16T08:09:40.820Z,69.96
2022-10-16T08:10:41.077Z,71.16
2022-10-16T08:11:41.210Z,72.94
2022-10-16T08:12:41.389Z,75.39
2022-10-16T08:13:42.352Z,77.44
2022-10-16T08:14:44.412Z,78.39
2022-10-16T08:15:42.934Z,79.23
2022-10-16T08:16:42.157Z,79.23
2022-10-16T08:17:42.281Z,79.66
2022-10-16T08:18:42.408Z,77.61
2022-10-16T08:19:42.864Z,78.05
2022-10-16T08:20:43.350Z,78.15
2022-10-16T08:21:43.956Z,78.45
2022-10-16T08:22:43.172Z,77.13
2022-10-16T08:23:43.854Z,75.05
2022-10-16T08:24:43.471Z,75.18
2022-10-16T08:25:44.354Z,75.66
2022-10-16T08:26:43.839Z,77.11
2022-10-16T08:27:43.997Z,78.39
2022-10-16T08:28:44.229Z,78.49
2022-10-16T08:29:44.310Z,77.44
2022-10-16T08:30:44.490Z,77.20
2022-10-16T08:31:44.650Z,77.57
2022-10-16T08:32:45.361Z,75.99
2022-10-16T08:33:45.005Z,75.09
2022-10-16T08:34:45.157Z,74.88
2022-10-16T08:35:45.287Z,75.05
2022-10-16T08:36:45.406Z,74.57
2022-10-16T08:37:45.525Z,72.90
2022-10-16T08:38:45.685Z,70.86
2022-10-16T08:39:45.839Z,70.23
2022-10-16T08:40:48.608Z,70.06
2022-10-16T08:41:48.867Z,68.19
2022-10-16T08:42:46.309Z,66.29
2022-10-16T08:43:46.458Z,66.09
2022-10-16T08:44:46.871Z,66.99
2022-10-16T08:45:46.785Z,68.02
2022-10-16T08:46:50.505Z,66.49
2022-10-16T08:47:48.086Z,68.23
2022-10-16T08:48:47.335Z,67.52
2022-10-16T08:49:47.506Z,66.79
2022-10-16T08:50:48.371Z,66.63
2022-10-16T08:51:47.852Z,65.46
2022-10-16T08:52:48.872Z,64.46
2022-10-16T08:53:48.112Z,65.09
2022-10-16T08:54:48.284Z,66.26
2022-10-16T08:55:48.439Z,64.89
2022-10-16T08:56:48.580Z,66.22
2022-10-16T08:57:48.738Z,66.75
2022-10-16T08:58:48.894Z,67.55
2022-10-16T08:59:49.106Z,67.15
2022-10-16T09:00:49.308Z,68.55
2022-10-16T09:01:49.385Z,69.69
2022-10-16T09:02:49.522Z,68.85
2022-10-16T09:03:50.368Z,68.35
2022-10-16T09:04:55.627Z,68.26
2022-10-16T09:05:52.084Z,68.96
2022-10-16T09:06:50.311Z,68.39
2022-10-16T09:07:50.576Z,68.46
2022-10-16T09:08:51.387Z,67.65
2022-10-16T09:09:51.396Z,65.85
2022-10-16T09:10:51.874Z,65.78
2022-10-16T09:11:51.246Z,66.68
2022-10-16T09:12:51.875Z,67.52
2022-10-16T09:13:51.596Z,68.99
2022-10-16T09:14:52.410Z,67.25
2022-10-16T09:15:52.018Z,66.42
2022-10-16T09:16:52.193Z,64.95
2022-10-16T09:17:52.321Z,64.92
2022-10-16T09:18:53.376Z,64.28
2022-10-16T09:19:52.646Z,63.78
2022-10-16T09:20:52.797Z,65.28
2022-10-16T09:21:53.392Z,64.45
2022-10-16T09:22:53.901Z,63.56
2022-10-16T09:23:53.880Z,64.69
2022-10-16T09:24:53.528Z,63.46
2022-10-16T09:25:53.899Z,62.34
2022-10-16T09:26:53.905Z,61.51
2022-10-16T09:27:54.925Z,61.77
2022-10-16T09:28:54.501Z,61.15
2022-10-16T09:29:58.909Z,60.69
2022-10-16T09:30:56.730Z,59.52
2022-10-16T09:31:54.826Z,59.92
2022-10-16T09:32:54.965Z,60.05
2022-10-16T09:33:55.102Z,60.02
2022-10-16T09:34:55.267Z,60.22
2022-10-16T09:35:55.447Z,60.52
2022-10-16T09:36:55.623Z,59.42
2022-10-16T09:37:56.385Z,60.88
2022-10-16T09:38:56.032Z,61.71
2022-10-16T09:39:56.219Z,61.71
2022-10-16T09:40:59.221Z,61.47
2022-10-16T09:41:59.390Z,60.58
2022-10-16T09:42:56.732Z,60.78
2022-10-16T09:43:56.897Z,60.28
2022-10-16T09:44:57.047Z,60.50
2022-10-16T09:45:57.199Z,61.47
2022-10-16T09:46:57.896Z,59.78
2022-10-16T09:47:57.963Z,60.96
2022-10-16T09:48:57.769Z,63.42
2022-10-16T09:49:57.941Z,64.19
2022-10-16T09:50:58.095Z,63.23
2022-10-16T09:51:58.905Z,61.46
2022-10-16T09:52:58.381Z,62.13
2022-10-16T09:53:59.395Z,61.33
2022-10-16T09:54:58.903Z,62.89
2022-10-16T09:55:59.899Z,62.89
2022-10-16T09:56:59.034Z,61.69
2022-10-16T09:57:59.411Z,61.99
2022-10-16T09:58:59.415Z,63.03
2022-10-16T10:00:00.442Z,60.61
2022-10-16T10:00:59.710Z,62.27
2022-10-16T10:01:59.877Z,61.98
2022-10-16T10:03:00.088Z,60.62
2022-10-16T10:04:00.893Z,59.39
2022-10-16T10:05:00.523Z,58.27
2022-10-16T10:06:02.172Z,59.62
2022-10-16T10:07:01.407Z,60.89
2022-10-16T10:08:01.057Z,59.86
2022-10-16T10:09:01.203Z,59.06
2022-10-16T10:10:01.341Z,58.27
2022-10-16T10:11:01.469Z,58.10
2022-10-16T10:13:02.397Z,60.69
2022-10-16T10:14:02.899Z,59.65
2022-10-16T10:15:02.127Z,60.65
2022-10-16T10:16:03.908Z,59.32
2022-10-16T10:17:02.521Z,58.45
2022-10-16T10:18:02.651Z,58.91
2022-10-16T10:19:02.771Z,60.80
2022-10-16T10:20:03.907Z,61.68
2022-10-16T10:22:03.923Z,58.98
2022-10-16T10:23:04.414Z,60.41
2022-10-16T10:24:03.786Z,60.68
2022-10-16T10:25:03.963Z,59.95
2022-10-16T10:26:04.132Z,60.82
2022-10-16T10:27:04.268Z,59.45
2022-10-16T10:28:04.380Z,59.82
2022-10-16T10:29:04.574Z,60.39
2022-10-16T10:30:04.777Z,59.34
2022-10-16T10:31:04.833Z,57.94
2022-10-16T10:32:05.908Z,57.37
2022-10-16T10:33:05.304Z,58.17
2022-10-16T10:34:05.443Z,57.75
2022-10-16T10:35:05.589Z,58.44
2022-10-16T10:36:06.414Z,56.27
2022-10-16T10:37:05.901Z,58.89
2022-10-16T10:38:06.421Z,58.40
2022-10-16T10:39:06.171Z,58.11
2022-10-16T10:40:06.912Z,60.39
2022-10-16T10:41:07.414Z,62.42
2022-10-16T10:42:06.661Z,62.62
2022-10-16T10:43:06.806Z,60.79
2022-10-16T10:44:06.998Z,61.92
2022-10-16T10:45:07.929Z,62.68
2022-10-16T10:46:07.295Z,63.95
2022-10-16T10:47:07.423Z,63.02
2022-10-16T10:48:07.552Z,60.22
2022-10-16T10:49:07.707Z,63.06
2022-10-16T10:50:08.423Z,61.92
2022-10-16T10:51:08.913Z,61.19
2022-10-16T10:52:08.284Z,61.45
2022-10-16T10:53:08.922Z,62.34
2022-10-16T10:54:08.572Z,63.75
2022-10-16T10:55:08.724Z,64.18
2022-10-16T10:56:09.427Z,65.45
2022-10-16T10:57:09.042Z,65.39
2022-10-16T10:58:09.921Z,64.86
2022-10-16T10:59:09.962Z,63.95
2022-10-16T11:00:09.606Z,62.92
2022-10-16T11:01:09.930Z,63.22
2022-10-16T11:02:09.999Z,62.92
2022-10-16T11:03:10.958Z,61.69
2022-10-16T11:04:10.924Z,59.79
2022-10-16T11:05:10.586Z,61.38
2022-10-16T11:06:11.433Z,63.04
2022-10-16T11:07:10.926Z,65.42
2022-10-16T11:08:11.949Z,64.59
2022-10-16T11:09:11.325Z,62.18
2022-10-16T11:10:11.491Z,63.35
2022-10-16T11:11:12.628Z,63.53
2022-10-16T11:12:11.863Z,62.89
2022-10-16T11:13:12.040Z,61.76
2022-10-16T11:14:12.166Z,61.54
2022-10-16T11:15:12.452Z,61.24
2022-10-16T11:16:14.332Z,60.61
2022-10-16T11:17:13.431Z,61.08
2022-10-16T11:18:12.944Z,58.38
2022-10-16T11:19:12.966Z,59.78
2022-10-16T11:20:13.203Z,59.48
2022-10-16T11:21:13.948Z,59.45
2022-10-16T11:22:13.478Z,58.62
2022-10-16T11:23:13.653Z,58.25
2022-10-16T11:24:13.812Z,58.75
2022-10-16T11:25:14.000Z,59.35
2022-10-16T11:26:14.146Z,59.45
2022-10-16T11:27:14.946Z,58.65
2022-10-16T11:28:14.428Z,59.32
2022-10-16T11:29:14.588Z,57.93
2022-10-16T11:30:14.808Z,56.88
2022-10-16T11:31:15.932Z,58.94
2022-10-16T11:32:15.173Z,60.16
2022-10-16T11:33:15.305Z,61.24
2022-10-16T11:34:15.430Z,60.50
2022-10-16T11:35:15.966Z,60.28
2022-10-16T11:36:15.725Z,58.28
2022-10-16T11:37:15.854Z,59.58
2022-10-16T11:38:16.009Z,57.81
2022-10-16T11:39:16.955Z,58.47
2022-10-16T11:40:16.452Z,61.19
2022-10-16T11:41:16.485Z,60.79
2022-10-16T11:42:16.624Z,60.19
2022-10-16T11:43:16.769Z,59.92
2022-10-16T11:44:16.950Z,61.22
2022-10-16T11:45:17.101Z,62.09
2022-10-16T11:46:17.273Z,60.46
2022-10-16T11:47:39.828Z,59.86
2022-10-16T11:48:20.459Z,60.53
2022-10-16T11:49:18.440Z,60.63
2022-10-16T11:50:17.833Z,58.94
2022-10-16T11:51:18.451Z,59.11
2022-10-16T11:52:18.229Z,59.44
2022-10-16T11:53:18.401Z,58.47
2022-10-16T11:54:18.573Z,59.79
2022-10-16T11:55:18.746Z,58.72
2022-10-16T11:56:18.930Z,60.15
2022-10-16T11:57:19.453Z,60.68
2022-10-16T11:58:19.228Z,60.68
2022-10-16T11:59:19.416Z,60.68
2022-10-16T12:00:19.601Z,61.18
2022-10-16T12:01:19.794Z,61.01
2022-10-16T12:02:20.447Z,60.91
2022-10-16T12:03:20.143Z,62.31
2022-10-16T12:04:20.466Z,62.61
2022-10-16T12:05:21.452Z,61.68
2022-10-16T12:06:20.959Z,61.08
2022-10-16T12:07:20.884Z,60.48
2022-10-16T12:08:21.059Z,60.81
2022-10-16T12:09:21.220Z,62.38
2022-10-16T12:10:26.544Z,61.88
2022-10-16T12:11:23.518Z,61.58
2022-10-16T12:12:21.966Z,62.81
2022-10-16T12:13:22.951Z,60.81
2022-10-16T12:14:22.959Z,60.61
2022-10-16T12:15:35.199Z,62.11
2022-10-16T12:16:25.456Z,61.68
2022-10-16T12:17:23.469Z,60.28
2022-10-16T12:18:22.846Z,60.98
2022-10-16T12:19:23.963Z,60.01
2022-10-16T12:20:23.264Z,60.47
2022-10-16T12:21:23.445Z,61.97
2022-10-16T12:22:23.740Z,62.37
2022-10-16T12:23:23.720Z,63.34
2022-10-16T12:24:23.887Z,62.51
2022-10-16T12:25:24.969Z,61.68
2022-10-16T12:26:24.192Z,61.38
2022-10-16T12:27:24.954Z,61.68
2022-10-16T12:28:24.465Z,61.68
2022-10-16T12:29:24.647Z,61.71
2022-10-16T12:30:25.491Z,61.94
2022-10-16T12:31:24.989Z,63.11
2022-10-16T12:33:27.383Z,62.98
2022-10-16T12:34:25.598Z,63.06
2022-10-16T12:35:25.739Z,61.72
2022-10-16T12:36:25.911Z,60.82
2022-10-16T12:37:26.062Z,60.72
2022-10-16T12:38:26.190Z,61.12
2022-10-16T12:39:26.325Z,60.79
2022-10-16T12:40:26.449Z,59.62
2022-10-16T12:41:26.598Z,59.82
2022-10-16T12:42:26.924Z,60.62
2022-10-16T12:43:29.021Z,60.42
2022-10-16T12:44:27.041Z,59.69
2022-10-16T12:45:27.200Z,59.12
2022-10-16T12:46:27.385Z,60.82
2022-10-16T12:47:27.549Z,60.15
2022-10-16T12:48:36.830Z,59.98
2022-10-16T12:49:29.849Z,61.01
2022-10-16T12:50:27.989Z,60.84
2022-10-16T12:51:28.162Z,61.74
2022-10-16T12:52:28.948Z,63.04
2022-10-16T12:53:28.537Z,63.87
2022-10-16T12:54:28.771Z,63.64
2022-10-16T12:55:29.489Z,63.42
2022-10-16T12:56:29.082Z,63.11
2022-10-16T12:57:29.397Z,63.21